Flight Track Log - Related Links

Times and Time Zones

All times are in EDT time to prevent confusion due to time zone crossing. See the SKW5631 flight status page for this flight to view local times or setup timezone preferences in your user account.

Time Position Orientation Groundspeed Altitude Reporting Facility
EDT Latitude Longitude Course Direction KTS MPH feet Rate Location/Type
Sat 10:28:33 PM 37.6667 -122.3667 345° North 174 200 2,100  Level Northern Cal TRACON
Sat 10:29:39 PM 37.7167 -122.3833 345° North 242 278 4,900 2,412 Climbing Northern Cal TRACON
Sat 10:30:15 PM 37.7158 -122.4233 269° West 235 270 6,200 2,103 Climbing Oakland Center
Sat 10:31:16 PM 37.6489 -122.4500 198° South 250 288 8,300 2,164 Climbing Oakland Center
Sat 10:32:17 PM 37.5706 -122.4653 189° South 293 337 10,600 2,262 Climbing Oakland Center
Sat 10:33:18 PM 37.5083 -122.3969 139° Southeast 299 344 12,900 1,918 Climbing Oakland Center
Sat 10:34:19 PM 37.4256 -122.3075 139° Southeast 337 388 14,500 1,736 Climbing Oakland Center
Sat 10:35:19 PM 37.3497 -122.2233 139° Southeast 363 418 16,400 1,785 Climbing Oakland Center
Sat 10:36:20 PM 37.2703 -122.1378 139° Southeast 375 432 18,100 1,770 Climbing Oakland Center
Sat 10:37:21 PM 37.1897 -122.0500 139° Southeast 383 441 20,000 1,721 Climbing Oakland Center
Sat 10:38:22 PM 37.1072 -121.9600 139° Southeast 393 452 21,600 1,636 Climbing Oakland Center
Sat 10:39:22 PM 37.0217 -121.8681 139° Southeast 403 464 23,300 1,636 Climbing Oakland Center
Sat 10:40:23 PM 36.9322 -121.7775 141° Southeast 413 475 24,900 1,574 Climbing Oakland Center
Sat 10:41:24 PM 36.8428 -121.6853 140° Southeast 417 480 26,500 1,279 Climbing Oakland Center
Sat 10:42:25 PM 36.7611 -121.5972 139° Southeast 423 487 27,500 1,180 Climbing Oakland Center
Sat 10:43:26 PM 36.6522 -121.4811 139° Southeast 431 496 28,900 1,190 Climbing Oakland Center
Sat 10:44:26 PM 36.5589 -121.3811 139° Southeast 440 506 29,900 893 Climbing Oakland Center
Sat 10:45:27 PM 36.4639 -121.2789 139° Southeast 450 518 30,700 836 Climbing Oakland Center
Sat 10:46:28 PM 36.3664 -121.1797 141° Southeast 454 522 31,600 836 Climbing Oakland Center
Sat 10:47:29 PM 36.2689 -121.0758 139° Southeast 461 531 32,400 694 Climbing Oakland Center
Sat 10:48:29 PM 36.1697 -120.9714 140° Southeast 467 537 33,000 248 Climbing Oakland Center
Sat 10:49:30 PM 36.0664 -120.8650 140° Southeast 482 555 32,900  Descending Oakland Center
Sat 10:50:31 PM 35.9658 -120.7589 139° Southeast 478 550 33,000 50 Climbing Oakland Center
Sat 10:51:31 PM 35.8667 -120.6542 139° Southeast 471 542 33,000  Level Oakland Center
Sat 10:52:32 PM 35.7678 -120.5542 141° Southeast 462 532 33,000  Level Oakland Center
Sat 10:53:33 PM 35.6728 -120.4567 140° Southeast 461 531 33,000  Level Oakland Center
Sat 10:54:34 PM 35.5711 -120.3506 140° Southeast 459 528 33,000 -347 Level Oakland Center
Sat 10:55:34 PM 35.4747 -120.2533 141° Southeast 464 534 32,300 -1,488 Descending Oakland Center
Sat 10:56:35 PM 35.3631 -120.1358 139° Southeast 481 554 30,000 -2,063 Descending Oakland Center
Sat 10:57:42 PM 35.2600 -120.0344 141° Southeast 474 545 27,900 -2,203 Descending Los Angeles Center
Sat 10:58:43 PM 35.1467 -119.9197 140° Southeast 446 513 25,300 -2,331 Descending Los Angeles Center
Sat 10:59:43 PM 35.0628 -119.8253 137° Southeast 419 482 23,200 -2,083 Descending Los Angeles Center
Sat 11:00:44 PM 34.9897 -119.7242 131° Southeast 399 459 21,100 -2,066 Descending Los Angeles Center
Sat 11:01:45 PM 34.9189 -119.6286 132° Southeast 385 443 19,000 -2,016 Descending Los Angeles Center
Sat 11:02:46 PM 34.8497 -119.5356 132° Southeast 375 432 17,000 -2,016 Descending Los Angeles Center
Sat 11:03:47 PM 34.7828 -119.4453 132° Southeast 363 418 14,900 -2,066 Descending Los Angeles Center
Sat 11:04:48 PM 34.7172 -119.3578 132° Southeast 353 406 12,800 -1,279 Descending Los Angeles Center
Sat 11:06:50 PM 34.5839 -119.1853 133° Southeast 349 402 11,000 -590 Descending Los Angeles Center
Sat 11:07:51 PM 34.5256 -119.1078 132° Southeast 311 358 11,000 -246 Level Los Angeles Center
Sat 11:08:52 PM 34.4742 -119.0350 131° Southeast 284 327 10,500 -984 Descending Los Angeles Center
Sat 11:09:53 PM 34.4267 -118.9600 128° Southeast 278 320 9,000 -1,426 Descending Los Angeles Center
Sat 11:10:54 PM 34.3825 -118.8897 127° Southeast 264 304 7,600 -1,377 Descending Los Angeles Center
Sat 11:11:55 PM 34.3364 -118.8219 129° Southeast 262 302 6,200 -1,279 Descending Los Angeles Center
Sat 11:12:56 PM 34.2931 -118.7533 127° Southeast 259 298 5,000 -885 Descending Los Angeles Center
Sat 11:13:57 PM 34.2397 -118.6717 128° Southeast 257 296 4,400 -492 Descending Los Angeles Center
Sat 11:14:58 PM 34.2042 -118.6075 124° Southeast 242 278 4,000 -443 Descending Los Angeles Center
Sat 11:15:59 PM 34.2008 -118.5489 94° East 197 227 3,500 -639 Descending Los Angeles Center
Sat 11:17:00 PM 34.1994 -118.4922 92° East 180 207 2,700 -738 Descending Los Angeles Center
Sat 11:18:01 PM 34.1986 -118.4458 91° East 161 185 2,000 -639 Descending Los Angeles Center
Sat 11:19:02 PM 34.1986 -118.4014 90° East 144 166 1,400 -393 Descending Los Angeles Center
Sat 11:20:03 PM 34.1978 -118.3617 91° East 141 162 1,200 -197 Descending Los Angeles Center

Login

Don't have an account? Register now (free) for customized features, flight alerts, and more!